Time;durP1;ratioP1;P1;durP2;ratioP2;P2;SDS_P1;SDS_P2;PMS_P1;PMS_P2;Temp;Humidity;BMP_temperature;BMP_pressure;BME280_temperature;BME280_humidity;BME280_pressure;Samples;Min_cycle;Max_cycle;Signal;HPM_P1;HPM_P2
2022/11/11 00:01:34;;;;;;;14.05;5.40;;;;;;;;;;5033912;28;20259;-64
2022/11/11 00:04:00;;;;;;;10.88;5.18;;;;;;;;;;5034239;28;20255;-64
2022/11/11 00:06:25;;;;;;;13.73;5.68;;;;;;;;;;5014931;28;20290;-65
2022/11/11 00:08:50;;;;;;;12.82;5.45;;;;;;;;;;5034138;28;20240;-64
2022/11/11 00:11:15;;;;;;;13.75;5.63;;;;;;;;;;5033493;28;20761;-64
2022/11/11 00:13:41;;;;;;;10.23;5.57;;;;;;;;;;5033269;28;20224;-65
2022/11/11 00:16:07;;;;;;;14.55;5.72;;;;;;;;;;5033105;28;20211;-64
2022/11/11 00:25:04;;;;;;;14.48;6.45;;;;;;;;;;5032460;28;20693;-64
2022/11/11 00:27:04;;;;;;;13.02;5.65;;;;;;;;;;5032721;28;20285;-64
2022/11/11 00:29:29;;;;;;;11.30;5.90;;;;;;;;;;5033678;28;20663;-64
2022/11/11 00:34:38;;;;;;;11.27;5.90;;;;;;;;;;5032552;28;20238;-64
2022/11/11 00:37:04;;;;;;;14.18;5.93;;;;;;;;;;5032680;28;20674;-64
2022/11/11 00:39:29;;;;;;;13.73;6.00;;;;;;;;;;5032675;28;20211;-64
2022/11/11 00:41:54;;;;;;;12.40;6.35;;;;;;;;;;5032586;28;20214;-64
2022/11/11 00:44:19;;;;;;;12.70;6.53;;;;;;;;;;5033075;28;20246;-64
2022/11/11 00:52:25;;;;;;;13.45;7.07;;;;;;;;;;5032384;28;20278;-64
2022/11/11 00:54:51;;;;;;;14.70;6.25;;;;;;;;;;5032639;28;20220;-64
2022/11/11 00:57:16;;;;;;;14.05;6.78;;;;;;;;;;5032770;28;20239;-64
2022/11/11 00:59:42;;;;;;;17.00;8.10;;;;;;;;;;5032928;28;20212;-64
2022/11/11 01:02:07;;;;;;;15.93;7.28;;;;;;;;;;5031747;28;20218;-64
2022/11/11 01:04:32;;;;;;;13.98;7.70;;;;;;;;;;5033119;28;20271;-65
2022/11/11 01:06:58;;;;;;;15.52;7.57;;;;;;;;;;5032943;28;20701;-65
2022/11/11 01:09:23;;;;;;;17.77;8.57;;;;;;;;;;5031445;28;20200;-64
2022/11/11 01:11:48;;;;;;;17.13;8.50;;;;;;;;;;5028884;28;20251;-64
2022/11/11 01:14:13;;;;;;;15.73;8.40;;;;;;;;;;5021068;28;20582;-64
2022/11/11 01:16:39;;;;;;;18.88;9.23;;;;;;;;;;5012558;28;20270;-64
2022/11/11 01:19:04;;;;;;;18.30;9.13;;;;;;;;;;5009022;28;20216;-64
2022/11/11 01:21:29;;;;;;;15.20;8.95;;;;;;;;;;5009703;28;20306;-64
2022/11/11 01:23:54;;;;;;;18.95;9.20;;;;;;;;;;5014323;28;20684;-64
2022/11/11 01:26:22;;;;;;;19.55;9.77;;;;;;;;;;5016336;28;20225;-63
2022/11/11 01:28:47;;;;;;;15.23;9.60;;;;;;;;;;5017193;28;20613;-64
2022/11/11 01:31:15;;;;;;;19.48;10.10;;;;;;;;;;5016294;28;20220;-64
2022/11/11 01:33:40;;;;;;;16.23;10.63;;;;;;;;;;5016983;28;20219;-64
2022/11/11 01:36:06;;;;;;;19.20;11.05;;;;;;;;;;5016466;28;20270;-64
2022/11/11 01:38:31;;;;;;;17.38;10.43;;;;;;;;;;5012701;28;20550;-63
2022/11/11 01:40:57;;;;;;;16.85;10.18;;;;;;;;;;5009589;28;20212;-64
2022/11/11 01:43:22;;;;;;;17.40;10.48;;;;;;;;;;5009414;28;20723;-64
2022/11/11 01:45:49;;;;;;;18.83;11.25;;;;;;;;;;5011835;28;20238;-64
2022/11/11 01:51:14;;;;;;;22.13;12.40;;;;;;;;;;5000770;28;20223;-64
2022/11/11 01:53:39;;;;;;;18.23;11.45;;;;;;;;;;4999216;28;20514;-64
2022/11/11 01:56:04;;;;;;;16.20;11.00;;;;;;;;;;5016462;28;20219;-63
2022/11/11 01:58:30;;;;;;;17.52;11.68;;;;;;;;;;4998038;28;20262;-64
2022/11/11 02:01:01;;;;;;;19.73;12.25;;;;;;;;;;5013408;28;20522;-64
2022/11/11 02:03:26;;;;;;;18.85;11.07;;;;;;;;;;5008802;28;20219;-64
2022/11/11 02:05:54;;;;;;;21.00;11.93;;;;;;;;;;5008870;28;20759;-63
2022/11/11 02:08:31;;;;;;;19.75;11.65;;;;;;;;;;5011821;28;20442;-63
2022/11/11 02:11:05;;;;;;;20.55;12.02;;;;;;;;;;5016100;28;20718;-64
2022/11/11 02:16:14;;;;;;;18.50;12.23;;;;;;;;;;5023997;28;20227;-64
2022/11/11 02:18:40;;;;;;;24.50;12.80;;;;;;;;;;5025272;28;20215;-63
2022/11/11 02:21:05;;;;;;;17.88;12.15;;;;;;;;;;5012259;28;20545;-64
2022/11/11 02:23:50;;;;;;;18.67;12.35;;;;;;;;;;5006550;28;20278;-64
2022/11/11 02:26:15;;;;;;;19.73;12.52;;;;;;;;;;5005350;28;20223;-64
2022/11/11 02:28:40;;;;;;;23.85;13.23;;;;;;;;;;4989027;28;20217;-63
2022/11/11 02:31:05;;;;;;;19.45;13.82;;;;;;;;;;5005904;28;20226;-64
2022/11/11 02:33:31;;;;;;;19.15;12.85;;;;;;;;;;5006012;28;20703;-64
2022/11/11 02:35:56;;;;;;;21.58;12.85;;;;;;;;;;5006894;28;20227;-64
2022/11/11 02:38:21;;;;;;;19.58;12.95;;;;;;;;;;5006663;28;20240;-64
2022/11/11 02:43:31;;;;;;;20.13;13.43;;;;;;;;;;5025894;28;20215;-64
2022/11/11 02:45:56;;;;;;;19.95;13.13;;;;;;;;;;5026088;28;20212;-64
2022/11/11 02:48:21;;;;;;;20.92;13.27;;;;;;;;;;5026269;28;20222;-63
2022/11/11 02:50:47;;;;;;;21.80;13.45;;;;;;;;;;5026436;28;20573;-63
2022/11/11 02:53:12;;;;;;;19.42;12.80;;;;;;;;;;5026307;28;20630;-63
2022/11/11 02:55:37;;;;;;;22.08;13.45;;;;;;;;;;5025846;28;20220;-63
2022/11/11 02:58:02;;;;;;;20.33;13.60;;;;;;;;;;5026541;28;20223;-64
2022/11/11 03:00:28;;;;;;;19.75;12.63;;;;;;;;;;5026270;28;20244;-63
2022/11/11 03:02:53;;;;;;;21.77;13.10;;;;;;;;;;5027665;28;20216;-63
2022/11/11 03:05:18;;;;;;;22.67;13.27;;;;;;;;;;5029393;28;20286;-63
2022/11/11 03:07:43;;;;;;;19.30;12.73;;;;;;;;;;5029687;28;20223;-63
2022/11/11 03:10:09;;;;;;;19.25;12.63;;;;;;;;;;5027919;28;20692;-64
2022/11/11 03:12:34;;;;;;;19.50;12.50;;;;;;;;;;5029065;28;20227;-63
2022/11/11 03:14:59;;;;;;;18.27;12.52;;;;;;;;;;5027570;28;20200;-63
2022/11/11 03:17:40;;;;;;;19.55;13.30;;;;;;;;;;5029178;28;20219;-63
2022/11/11 03:23:07;;;;;;;20.20;13.30;;;;;;;;;;5033606;28;20223;-63
2022/11/11 03:25:38;;;;;;;19.92;12.68;;;;;;;;;;5034163;28;20215;-63
2022/11/11 03:28:04;;;;;;;21.33;13.30;;;;;;;;;;5034143;28;20223;-63
2022/11/11 03:30:30;;;;;;;19.75;13.18;;;;;;;;;;5034293;28;20539;-63
2022/11/11 03:32:55;;;;;;;17.20;12.90;;;;;;;;;;5034592;28;20713;-63
2022/11/11 03:35:20;;;;;;;20.75;12.88;;;;;;;;;;5034325;28;20298;-64
2022/11/11 03:38:26;;;;;;;20.73;13.68;;;;;;;;;;5034026;28;20227;-63
2022/11/11 03:40:43;;;;;;;18.13;12.85;;;;;;;;;;5033931;28;20218;-63
2022/11/11 03:43:08;;;;;;;20.10;12.75;;;;;;;;;;5033107;28;20216;-63
2022/11/11 03:45:33;;;;;;;21.13;12.65;;;;;;;;;;5034494;28;20245;-63
2022/11/11 03:47:58;;;;;;;19.08;12.30;;;;;;;;;;5034604;28;20247;-63
2022/11/11 03:50:24;;;;;;;19.90;12.95;;;;;;;;;;5033418;28;20238;-63
2022/11/11 03:52:49;;;;;;;20.48;12.20;;;;;;;;;;5034314;28;20289;-63
2022/11/11 03:55:14;;;;;;;18.33;12.30;;;;;;;;;;5033734;28;20211;-63
2022/11/11 03:57:40;;;;;;;19.95;12.52;;;;;;;;;;5023611;28;20216;-63
2022/11/11 04:00:06;;;;;;;20.80;13.32;;;;;;;;;;5024091;28;20234;-63
2022/11/11 04:10:42;;;;;;;18.70;11.48;;;;;;;;;;4996230;28;20265;-63
2022/11/11 04:16:05;;;;;;;19.15;11.32;;;;;;;;;;5017582;28;20307;-64
2022/11/11 04:23:57;;;;;;;16.88;11.43;;;;;;;;;;5017632;28;20226;-63
2022/11/11 04:26:22;;;;;;;17.33;12.32;;;;;;;;;;5016858;28;20224;-63
2022/11/11 04:31:34;;;;;;;21.30;12.05;;;;;;;;;;5010740;28;20226;-63
2022/11/11 04:33:59;;;;;;;19.83;11.52;;;;;;;;;;5009980;28;20567;-63
2022/11/11 04:36:24;;;;;;;19.20;11.38;;;;;;;;;;5013618;28;20694;-63
2022/11/11 04:41:33;;;;;;;19.60;11.95;;;;;;;;;;5016700;28;20276;-63
2022/11/11 04:46:43;;;;;;;20.77;11.90;;;;;;;;;;5016375;28;20516;-63
2022/11/11 04:49:08;;;;;;;17.83;10.95;;;;;;;;;;5016553;28;20321;-63
2022/11/11 04:54:17;;;;;;;19.35;11.60;;;;;;;;;;5009098;28;20776;-63
2022/11/11 04:56:49;;;;;;;18.65;11.52;;;;;;;;;;5009879;28;20219;-63
2022/11/11 04:59:15;;;;;;;18.95;11.95;;;;;;;;;;5013480;28;20212;-63
2022/11/11 05:04:24;;;;;;;20.08;11.13;;;;;;;;;;5016528;28;20285;-64
2022/11/11 05:09:33;;;;;;;16.98;11.30;;;;;;;;;;5016231;28;20729;-63
2022/11/11 05:11:58;;;;;;;16.25;10.63;;;;;;;;;;5016404;28;20220;-63
2022/11/11 05:22:38;;;;;;;18.45;11.63;;;;;;;;;;5014340;28;20278;-63
2022/11/11 05:27:48;;;;;;;20.83;12.13;;;;;;;;;;5017044;28;20304;-64
2022/11/11 05:30:14;;;;;;;18.92;11.05;;;;;;;;;;5016311;28;20216;-63
2022/11/11 05:32:39;;;;;;;18.58;11.48;;;;;;;;;;5017019;28;20247;-63
2022/11/11 05:35:04;;;;;;;17.65;11.63;;;;;;;;;;5024662;28;20529;-63
2022/11/11 05:37:30;;;;;;;18.98;11.10;;;;;;;;;;5025770;28;20216;-63
2022/11/11 05:39:55;;;;;;;17.45;11.13;;;;;;;;;;5026907;28;20207;-63
2022/11/11 05:42:20;;;;;;;15.80;11.18;;;;;;;;;;5008907;28;20215;-63
2022/11/11 05:44:46;;;;;;;18.80;10.88;;;;;;;;;;5026826;28;20219;-63
2022/11/11 05:47:11;;;;;;;18.30;11.02;;;;;;;;;;5026828;28;20222;-63
2022/11/11 05:49:36;;;;;;;18.95;10.98;;;;;;;;;;5027100;28;20707;-63
2022/11/11 05:52:01;;;;;;;17.45;10.88;;;;;;;;;;5025303;28;20215;-63
2022/11/11 05:54:27;;;;;;;17.02;11.07;;;;;;;;;;5027306;28;20204;-63
2022/11/11 05:56:52;;;;;;;18.58;11.43;;;;;;;;;;5026319;28;20698;-63
2022/11/11 05:59:17;;;;;;;15.82;10.10;;;;;;;;;;5026049;28;20243;-63
2022/11/11 06:01:42;;;;;;;16.63;10.63;;;;;;;;;;5010126;28;20347;-63
2022/11/11 06:04:08;;;;;;;17.25;11.27;;;;;;;;;;5009231;28;20211;-63
2022/11/11 06:06:33;;;;;;;17.92;10.10;;;;;;;;;;5009682;28;20220;-64
2022/11/11 06:08:59;;;;;;;18.25;10.23;;;;;;;;;;5012527;28;20784;-63
2022/11/11 06:11:24;;;;;;;15.25;9.93;;;;;;;;;;5014544;28;20211;-63
2022/11/11 06:13:49;;;;;;;18.80;10.05;;;;;;;;;;5022098;28;20635;-64
2022/11/11 06:16:15;;;;;;;18.63;11.18;;;;;;;;;;5015812;28;20200;-63
2022/11/11 06:18:40;;;;;;;19.70;11.57;;;;;;;;;;5021705;28;20215;-63
2022/11/11 06:21:05;;;;;;;17.92;11.45;;;;;;;;;;5021790;28;20208;-63
2022/11/11 06:23:31;;;;;;;17.85;11.70;;;;;;;;;;5022791;28;20298;-64
2022/11/11 06:26:11;;;;;;;20.25;12.80;;;;;;;;;;4998384;28;20563;-63
2022/11/11 06:28:36;;;;;;;22.58;13.50;;;;;;;;;;5009769;28;20211;-63
2022/11/11 06:31:02;;;;;;;22.05;15.23;;;;;;;;;;5008630;28;20219;-63
2022/11/11 06:33:27;;;;;;;23.88;15.63;;;;;;;;;;5009274;28;20227;-63
2022/11/11 06:35:52;;;;;;;25.17;16.08;;;;;;;;;;5015720;28;20225;-63
2022/11/11 06:38:18;;;;;;;23.05;16.80;;;;;;;;;;5019058;28;20215;-63
2022/11/11 06:40:43;;;;;;;29.13;16.80;;;;;;;;;;5018656;28;20541;-63
2022/11/11 06:43:08;;;;;;;22.20;15.65;;;;;;;;;;5018469;28;20915;-64
2022/11/11 06:45:35;;;;;;;23.38;15.90;;;;;;;;;;5001300;28;20717;-63
2022/11/11 06:48:01;;;;;;;25.55;16.48;;;;;;;;;;5018511;28;20231;-63
2022/11/11 06:50:27;;;;;;;25.80;16.02;;;;;;;;;;5015192;28;20683;-64
2022/11/11 06:52:53;;;;;;;22.40;15.85;;;;;;;;;;5012221;28;20230;-63
2022/11/11 06:55:18;;;;;;;24.20;16.02;;;;;;;;;;5011432;28;20574;-63
2022/11/11 06:57:43;;;;;;;21.83;15.98;;;;;;;;;;5025228;28;20258;-62
2022/11/11 07:00:09;;;;;;;25.05;17.58;;;;;;;;;;5027653;28;20285;-61
2022/11/11 07:02:34;;;;;;;26.30;19.63;;;;;;;;;;5029218;28;20483;-61
2022/11/11 07:05:00;;;;;;;27.63;20.55;;;;;;;;;;5030895;28;20440;-63
2022/11/11 07:07:27;;;;;;;24.38;17.15;;;;;;;;;;5044053;28;20218;-63
2022/11/11 07:09:54;;;;;;;26.17;19.15;;;;;;;;;;5043332;28;20437;-65
2022/11/11 07:12:19;;;;;;;25.75;18.33;;;;;;;;;;5023717;28;20673;-65
2022/11/11 07:14:45;;;;;;;23.20;15.57;;;;;;;;;;5025829;28;20527;-64
2022/11/11 07:17:10;;;;;;;22.33;15.43;;;;;;;;;;5026141;28;20208;-65
2022/11/11 07:19:35;;;;;;;23.75;15.93;;;;;;;;;;5027168;28;20224;-65
2022/11/11 07:22:00;;;;;;;20.55;14.30;;;;;;;;;;5025317;28;20250;-64
2022/11/11 07:24:26;;;;;;;21.77;15.65;;;;;;;;;;5026632;28;20222;-65
2022/11/11 07:26:51;;;;;;;19.02;14.15;;;;;;;;;;5033307;28;20263;-64
2022/11/11 07:29:16;;;;;;;23.85;16.55;;;;;;;;;;5036852;28;20226;-64
2022/11/11 07:31:41;;;;;;;21.48;15.25;;;;;;;;;;5037857;28;20202;-64
2022/11/11 07:34:07;;;;;;;21.20;14.90;;;;;;;;;;5036135;28;20635;-64
2022/11/11 07:36:32;;;;;;;19.85;14.68;;;;;;;;;;5038242;28;20210;-65
2022/11/11 07:38:57;;;;;;;23.48;14.82;;;;;;;;;;5037503;28;20274;-64
2022/11/11 07:41:23;;;;;;;24.15;15.70;;;;;;;;;;5036693;28;20215;-64
2022/11/11 07:43:48;;;;;;;23.17;15.27;;;;;;;;;;5037705;28;20215;-65
2022/11/11 07:46:13;;;;;;;21.55;15.30;;;;;;;;;;5030536;28;20232;-65
2022/11/11 07:48:38;;;;;;;21.80;15.07;;;;;;;;;;5028749;28;20223;-64
2022/11/11 07:51:04;;;;;;;25.33;16.42;;;;;;;;;;5027583;28;20203;-63
2022/11/11 07:53:29;;;;;;;23.08;15.57;;;;;;;;;;5028153;28;20609;-63
2022/11/11 07:55:55;;;;;;;21.88;14.85;;;;;;;;;;5027696;28;20203;-62
2022/11/11 07:58:20;;;;;;;21.60;15.40;;;;;;;;;;5026325;28;20219;-62
2022/11/11 08:00:45;;;;;;;21.73;14.98;;;;;;;;;;5027153;28;20220;-63
2022/11/11 08:03:11;;;;;;;27.08;15.55;;;;;;;;;;5027735;28;20303;-63
2022/11/11 08:05:36;;;;;;;21.73;15.15;;;;;;;;;;5027274;28;20833;-63
2022/11/11 08:08:05;;;;;;;23.30;15.45;;;;;;;;;;5030470;28;20234;-63
2022/11/11 08:10:30;;;;;;;19.48;14.15;;;;;;;;;;5026426;28;20269;-63
2022/11/11 08:15:39;;;;;;;19.88;13.90;;;;;;;;;;5027317;28;20596;-62
2022/11/11 08:18:04;;;;;;;20.55;13.90;;;;;;;;;;5027195;28;20683;-62
2022/11/11 08:20:30;;;;;;;21.33;13.93;;;;;;;;;;5010854;28;20222;-62
2022/11/11 08:22:57;;;;;;;22.20;13.32;;;;;;;;;;5028379;28;20298;-62
2022/11/11 08:25:22;;;;;;;17.33;11.75;;;;;;;;;;5027353;28;20227;-62
2022/11/11 08:27:48;;;;;;;20.25;12.00;;;;;;;;;;5028629;28;20573;-62
2022/11/11 08:30:13;;;;;;;18.48;11.90;;;;;;;;;;5027478;28;20705;-62
2022/11/11 08:32:38;;;;;;;17.48;11.95;;;;;;;;;;5027521;28;20247;-62
2022/11/11 08:35:04;;;;;;;16.58;11.00;;;;;;;;;;5027728;28;20302;-62
2022/11/11 08:37:29;;;;;;;16.87;10.43;;;;;;;;;;5028038;28;20239;-63
2022/11/11 08:39:54;;;;;;;18.90;13.03;;;;;;;;;;5026655;28;20422;-62
2022/11/11 08:42:20;;;;;;;19.10;10.85;;;;;;;;;;5026461;28;20259;-64
2022/11/11 08:44:45;;;;;;;16.00;9.82;;;;;;;;;;5028207;28;20257;-62
2022/11/11 08:47:11;;;;;;;13.88;9.48;;;;;;;;;;5026294;28;20222;-64
2022/11/11 08:49:36;;;;;;;16.20;9.88;;;;;;;;;;5027412;28;20216;-62
2022/11/11 08:52:01;;;;;;;17.40;10.10;;;;;;;;;;5027096;28;20227;-63
2022/11/11 08:54:26;;;;;;;17.05;9.68;;;;;;;;;;5026419;28;20223;-63
2022/11/11 08:56:52;;;;;;;14.70;9.70;;;;;;;;;;5027716;28;20204;-64
2022/11/11 08:59:17;;;;;;;14.30;9.43;;;;;;;;;;5026138;28;20339;-64
2022/11/11 09:01:42;;;;;;;15.88;9.52;;;;;;;;;;5025398;28;20769;-64
2022/11/11 09:04:07;;;;;;;14.63;9.00;;;;;;;;;;5026981;28;20223;-63
2022/11/11 09:06:33;;;;;;;16.40;8.77;;;;;;;;;;5027034;28;20235;-62
2022/11/11 09:08:58;;;;;;;15.55;8.88;;;;;;;;;;5026255;28;20204;-62
2022/11/11 09:11:23;;;;;;;12.52;9.30;;;;;;;;;;5026902;28;20216;-63
2022/11/11 09:13:49;;;;;;;13.38;9.35;;;;;;;;;;5026247;28;20246;-62
2022/11/11 09:16:14;;;;;;;11.85;8.43;;;;;;;;;;5026649;28;20212;-63
2022/11/11 09:18:39;;;;;;;14.50;8.30;;;;;;;;;;5026960;28;20211;-63
2022/11/11 09:21:05;;;;;;;12.98;8.35;;;;;;;;;;5026314;28;20219;-62
2022/11/11 09:23:30;;;;;;;13.43;7.85;;;;;;;;;;5028985;28;20227;-62
2022/11/11 09:25:57;;;;;;;13.75;8.25;;;;;;;;;;5024662;28;20208;-63
2022/11/11 09:28:22;;;;;;;12.68;7.72;;;;;;;;;;5025434;28;20211;-62
2022/11/11 09:30:47;;;;;;;13.75;7.35;;;;;;;;;;5027016;28;20222;-63
2022/11/11 09:33:15;;;;;;;12.43;7.60;;;;;;;;;;5018786;28;20636;-63
2022/11/11 09:35:40;;;;;;;12.02;7.30;;;;;;;;;;5026372;28;20287;-63
2022/11/11 09:38:05;;;;;;;12.98;7.35;;;;;;;;;;5026579;28;20341;-62
2022/11/11 09:40:37;;;;;;;12.75;6.93;;;;;;;;;;5030020;28;20603;-62
2022/11/11 09:43:18;;;;;;;10.68;6.80;;;;;;;;;;5027672;28;20206;-62
2022/11/11 09:45:44;;;;;;;13.10;7.22;;;;;;;;;;5025740;28;20326;-62
2022/11/11 09:48:23;;;;;;;12.05;6.90;;;;;;;;;;5028905;28;20234;-62
2022/11/11 09:50:53;;;;;;;11.00;6.45;;;;;;;;;;5023258;28;20202;-62
2022/11/11 09:53:23;;;;;;;10.15;6.38;;;;;;;;;;5033693;28;20689;-61
2022/11/11 09:55:49;;;;;;;11.40;6.95;;;;;;;;;;5034008;28;20215;-62
2022/11/11 09:58:15;;;;;;;9.80;6.40;;;;;;;;;;5031487;28;20208;-62
2022/11/11 10:00:41;;;;;;;12.05;6.80;;;;;;;;;;5026499;28;20235;-61
2022/11/11 10:03:14;;;;;;;10.23;5.93;;;;;;;;;;5024174;28;20208;-61
2022/11/11 10:05:40;;;;;;;12.02;6.57;;;;;;;;;;5029353;28;20269;-62
2022/11/11 10:08:14;;;;;;;10.45;5.80;;;;;;;;;;5029104;28;20265;-62
2022/11/11 10:10:44;;;;;;;9.18;5.45;;;;;;;;;;5025721;28;20884;-61
2022/11/11 10:13:11;;;;;;;10.38;5.80;;;;;;;;;;5012557;28;20235;-62
2022/11/11 10:15:38;;;;;;;10.50;6.07;;;;;;;;;;5003948;28;20220;-63
2022/11/11 10:18:14;;;;;;;11.00;5.82;;;;;;;;;;5025085;28;20234;-64
2022/11/11 10:20:41;;;;;;;9.38;5.90;;;;;;;;;;5009427;28;20243;-64
2022/11/11 10:23:11;;;;;;;9.32;5.63;;;;;;;;;;5024983;28;20215;-64
2022/11/11 10:25:37;;;;;;;8.98;5.55;;;;;;;;;;5027900;28;20493;-63
2022/11/11 10:28:02;;;;;;;9.80;5.22;;;;;;;;;;5029058;28;20710;-63
2022/11/11 10:30:28;;;;;;;8.52;5.47;;;;;;;;;;5047414;28;20219;-63
2022/11/11 10:32:56;;;;;;;7.53;4.90;;;;;;;;;;5048576;28;20357;-63
2022/11/11 10:35:22;;;;;;;7.63;4.30;;;;;;;;;;5049085;28;20222;-64
2022/11/11 10:37:49;;;;;;;8.48;5.10;;;;;;;;;;5050730;28;20360;-64
2022/11/11 10:40:17;;;;;;;8.35;4.38;;;;;;;;;;5026958;28;20211;-64
2022/11/11 10:42:42;;;;;;;7.88;4.80;;;;;;;;;;5030336;28;20297;-63
2022/11/11 10:45:10;;;;;;;8.05;4.38;;;;;;;;;;5049073;28;20306;-63
2022/11/11 10:47:38;;;;;;;8.80;4.78;;;;;;;;;;5029911;28;20943;-64
2022/11/11 10:50:07;;;;;;;9.38;4.70;;;;;;;;;;5029439;28;20212;-63
2022/11/11 10:52:36;;;;;;;9.45;4.60;;;;;;;;;;5036864;28;20260;-63
2022/11/11 10:55:03;;;;;;;6.60;4.47;;;;;;;;;;5026247;28;20262;-63
2022/11/11 10:57:31;;;;;;;9.13;4.63;;;;;;;;;;5029958;28;20269;-63
2022/11/11 11:00:02;;;;;;;7.50;4.20;;;;;;;;;;5010595;28;20300;-64
2022/11/11 11:02:29;;;;;;;7.50;3.90;;;;;;;;;;5028017;28;20212;-62
2022/11/11 11:04:57;;;;;;;7.57;3.70;;;;;;;;;;5012534;28;20207;-62
2022/11/11 11:07:24;;;;;;;7.97;3.83;;;;;;;;;;5007878;28;20564;-61
2022/11/11 11:09:49;;;;;;;8.63;4.50;;;;;;;;;;5028879;28;20273;-61
2022/11/11 11:12:16;;;;;;;9.68;4.50;;;;;;;;;;5029168;28;20216;-62
2022/11/11 11:14:42;;;;;;;7.30;3.85;;;;;;;;;;5026189;28;20219;-61
2022/11/11 11:17:14;;;;;;;8.32;4.20;;;;;;;;;;5004263;28;20225;-61
2022/11/11 11:19:39;;;;;;;7.20;3.88;;;;;;;;;;5020303;28;20247;-62
2022/11/11 11:22:05;;;;;;;8.10;3.90;;;;;;;;;;5027481;28;20228;-61
2022/11/11 11:24:31;;;;;;;8.02;3.75;;;;;;;;;;5021914;28;20741;-61
2022/11/11 11:26:57;;;;;;;6.93;3.65;;;;;;;;;;5023365;28;20212;-60
2022/11/11 11:29:25;;;;;;;6.07;3.60;;;;;;;;;;5028316;28;20682;-61
2022/11/11 11:31:51;;;;;;;6.25;3.80;;;;;;;;;;5028084;28;20204;-61
2022/11/11 11:34:16;;;;;;;7.50;3.40;;;;;;;;;;5020663;28;20309;-61
2022/11/11 11:36:41;;;;;;;6.70;3.50;;;;;;;;;;5028113;28;20227;-61
2022/11/11 11:39:06;;;;;;;8.25;3.95;;;;;;;;;;5024509;28;20631;-61
2022/11/11 11:41:39;;;;;;;5.60;3.50;;;;;;;;;;5027413;28;20216;-61
2022/11/11 11:44:23;;;;;;;7.90;3.83;;;;;;;;;;5028943;28;20215;-61
2022/11/11 11:46:49;;;;;;;9.10;3.58;;;;;;;;;;5029238;28;20269;-60
2022/11/11 11:49:35;;;;;;;7.38;3.45;;;;;;;;;;5027996;28;20212;-61
2022/11/11 11:52:12;;;;;;;8.57;3.58;;;;;;;;;;5043470;28;20204;-62
2022/11/11 11:54:46;;;;;;;5.95;3.40;;;;;;;;;;5028847;28;20633;-62
2022/11/11 11:57:30;;;;;;;9.35;4.28;;;;;;;;;;5042774;28;20231;-63
2022/11/11 11:59:59;;;;;;;6.82;3.50;;;;;;;;;;5028624;28;20216;-63
2022/11/11 12:02:25;;;;;;;10.40;4.05;;;;;;;;;;5043118;28;20239;-63
2022/11/11 12:05:02;;;;;;;8.88;4.22;;;;;;;;;;5028186;28;20227;-63
2022/11/11 12:07:30;;;;;;;6.82;3.70;;;;;;;;;;5043026;28;20211;-63
2022/11/11 12:10:02;;;;;;;9.80;3.97;;;;;;;;;;5027875;28;20536;-63
2022/11/11 12:12:34;;;;;;;7.10;3.72;;;;;;;;;;5027494;28;20231;-63
2022/11/11 12:15:03;;;;;;;6.05;3.75;;;;;;;;;;5027353;28;20863;-63
2022/11/11 12:17:32;;;;;;;7.78;3.70;;;;;;;;;;5009648;28;20752;-63
2022/11/11 12:20:01;;;;;;;7.00;3.80;;;;;;;;;;5010351;28;20691;-63
2022/11/11 12:22:26;;;;;;;6.13;3.92;;;;;;;;;;5026650;28;20571;-62
2022/11/11 12:24:54;;;;;;;7.70;3.75;;;;;;;;;;5027804;28;20709;-63
2022/11/11 12:27:19;;;;;;;6.65;3.40;;;;;;;;;;5027411;28;20214;-63
2022/11/11 12:29:49;;;;;;;7.13;3.67;;;;;;;;;;5028040;28;20223;-63
2022/11/11 12:32:22;;;;;;;7.72;3.60;;;;;;;;;;5026645;28;20311;-63
2022/11/11 12:34:50;;;;;;;6.47;3.60;;;;;;;;;;5035717;28;20220;-63
2022/11/11 12:37:19;;;;;;;8.25;4.63;;;;;;;;;;5027859;28;20307;-63
2022/11/11 12:39:49;;;;;;;8.05;3.88;;;;;;;;;;5037042;28;20354;-63
2022/11/11 12:42:18;;;;;;;6.55;3.55;;;;;;;;;;5027088;28;20574;-63
2022/11/11 12:44:49;;;;;;;6.45;3.50;;;;;;;;;;5027312;28;20208;-63
2022/11/11 12:47:41;;;;;;;7.75;3.42;;;;;;;;;;5007910;28;20228;-62
2022/11/11 12:50:07;;;;;;;7.07;3.38;;;;;;;;;;5032338;28;20215;-60
2022/11/11 12:52:35;;;;;;;5.13;3.25;;;;;;;;;;5025973;28;20584;-63
2022/11/11 12:55:04;;;;;;;6.22;3.30;;;;;;;;;;5017452;28;20242;-62
2022/11/11 12:57:48;;;;;;;5.90;3.00;;;;;;;;;;5007782;28;20228;-62
2022/11/11 13:00:14;;;;;;;7.57;3.33;;;;;;;;;;5008365;28;20630;-63
2022/11/11 13:02:40;;;;;;;6.70;3.50;;;;;;;;;;5027714;28;20208;-63
2022/11/11 13:05:09;;;;;;;6.68;3.10;;;;;;;;;;5027038;28;20222;-63
2022/11/11 13:07:54;;;;;;;7.63;3.58;;;;;;;;;;5007611;28;20207;-62
2022/11/11 13:10:19;;;;;;;8.43;3.50;;;;;;;;;;5016044;28;20208;-62
2022/11/11 13:12:44;;;;;;;8.50;3.50;;;;;;;;;;5027131;28;20235;-63
2022/11/11 13:15:21;;;;;;;6.75;3.10;;;;;;;;;;5026020;28;20203;-63
2022/11/11 13:17:46;;;;;;;11.85;3.88;;;;;;;;;;5027630;28;20221;-62
2022/11/11 13:20:15;;;;;;;7.53;3.10;;;;;;;;;;5026744;28;20216;-62
2022/11/11 13:22:40;;;;;;;4.82;2.97;;;;;;;;;;5027519;28;20290;-62
2022/11/11 13:25:06;;;;;;;4.68;2.70;;;;;;;;;;5026825;28;20306;-63
2022/11/11 13:27:33;;;;;;;7.60;3.05;;;;;;;;;;5008168;28;20667;-63
2022/11/11 13:29:58;;;;;;;6.57;2.92;;;;;;;;;;5027038;28;20211;-62
2022/11/11 13:32:25;;;;;;;6.88;2.97;;;;;;;;;;5026111;28;20500;-63
2022/11/11 13:34:50;;;;;;;6.47;2.90;;;;;;;;;;5008746;28;20215;-62
2022/11/11 13:37:19;;;;;;;6.03;3.35;;;;;;;;;;5025661;28;20207;-63
2022/11/11 13:39:46;;;;;;;5.70;2.63;;;;;;;;;;5025083;28;20786;-62
2022/11/11 13:42:12;;;;;;;5.28;2.88;;;;;;;;;;5025472;28;20212;-63
2022/11/11 13:44:44;;;;;;;6.47;3.13;;;;;;;;;;5026601;28;20214;-63
2022/11/11 13:47:11;;;;;;;8.68;3.35;;;;;;;;;;5026083;28;20278;-63
2022/11/11 13:49:38;;;;;;;6.93;2.60;;;;;;;;;;5008684;28;20243;-62
2022/11/11 13:52:04;;;;;;;6.07;2.90;;;;;;;;;;5008646;28;20216;-62
2022/11/11 13:54:31;;;;;;;5.57;2.90;;;;;;;;;;5026420;28;20220;-63
2022/11/11 13:57:01;;;;;;;4.68;2.75;;;;;;;;;;5024171;28;20246;-63
2022/11/11 13:59:27;;;;;;;5.65;3.00;;;;;;;;;;5005456;28;20203;-62
2022/11/11 14:02:11;;;;;;;6.45;2.60;;;;;;;;;;5044238;28;20254;-61
2022/11/11 14:05:10;;;;;;;5.65;2.80;;;;;;;;;;5046496;28;20298;-62
2022/11/11 14:07:46;;;;;;;7.82;3.08;;;;;;;;;;5044767;28;20215;-61
2022/11/11 14:10:12;;;;;;;5.88;2.90;;;;;;;;;;5025072;28;20682;-61
2022/11/11 14:12:38;;;;;;;6.07;3.00;;;;;;;;;;5027095;28;20273;-61
2022/11/11 14:15:06;;;;;;;7.10;3.15;;;;;;;;;;5027015;28;20207;-61
2022/11/11 14:17:32;;;;;;;5.60;3.40;;;;;;;;;;5027021;28;20257;-61
2022/11/11 14:19:57;;;;;;;8.18;2.90;;;;;;;;;;5024939;28;20211;-61
2022/11/11 14:22:22;;;;;;;6.85;3.92;;;;;;;;;;5026348;28;20223;-61
2022/11/11 14:24:48;;;;;;;7.47;3.00;;;;;;;;;;5026178;28;20215;-62
2022/11/11 14:27:15;;;;;;;6.45;2.83;;;;;;;;;;5025883;28;20884;-62
2022/11/11 14:29:52;;;;;;;7.05;3.50;;;;;;;;;;5025945;28;20223;-61
2022/11/11 14:32:23;;;;;;;6.60;3.30;;;;;;;;;;5041958;28;20752;-62
2022/11/11 14:34:52;;;;;;;9.43;3.33;;;;;;;;;;5046115;28;20659;-62
2022/11/11 14:37:27;;;;;;;5.82;3.10;;;;;;;;;;5045044;28;20203;-62
2022/11/11 14:39:53;;;;;;;5.15;2.90;;;;;;;;;;5035543;28;20211;-62
2022/11/11 14:42:34;;;;;;;5.47;2.83;;;;;;;;;;5025394;28;20269;-62
2022/11/11 14:44:59;;;;;;;5.30;3.10;;;;;;;;;;5025474;28;20212;-62
2022/11/11 14:47:31;;;;;;;6.15;2.65;;;;;;;;;;5025617;28;20246;-62
2022/11/11 14:49:58;;;;;;;5.63;2.67;;;;;;;;;;5026510;28;20211;-61
2022/11/11 14:52:36;;;;;;;5.72;2.83;;;;;;;;;;5024875;28;20211;-62
2022/11/11 14:55:02;;;;;;;6.07;2.70;;;;;;;;;;5007422;28;20228;-62
2022/11/11 14:57:29;;;;;;;4.70;2.70;;;;;;;;;;5026180;28;20262;-61
2022/11/11 14:59:54;;;;;;;5.53;2.40;;;;;;;;;;5029005;28;20847;-62
2022/11/11 15:02:28;;;;;;;7.13;2.63;;;;;;;;;;5011639;28;20308;-61
2022/11/11 15:04:56;;;;;;;7.53;2.40;;;;;;;;;;5030183;28;20223;-61
2022/11/11 15:07:36;;;;;;;6.32;2.55;;;;;;;;;;5010960;28;20242;-61
2022/11/11 15:10:05;;;;;;;7.38;2.78;;;;;;;;;;5005971;28;20223;-62
2022/11/11 15:12:47;;;;;;;5.50;2.65;;;;;;;;;;5011445;28;20208;-61
2022/11/11 15:15:14;;;;;;;6.32;2.67;;;;;;;;;;4995300;28;20294;-62
2022/11/11 15:17:44;;;;;;;5.72;2.53;;;;;;;;;;5029616;28;20216;-61
2022/11/11 15:20:21;;;;;;;5.40;2.50;;;;;;;;;;5028849;28;20303;-61
2022/11/11 15:22:47;;;;;;;4.75;2.40;;;;;;;;;;5011886;28;20215;-61
2022/11/11 15:25:16;;;;;;;6.10;2.53;;;;;;;;;;5029129;28;20215;-61
2022/11/11 15:27:42;;;;;;;7.80;2.58;;;;;;;;;;5011590;28;20299;-61
2022/11/11 15:30:09;;;;;;;6.78;2.80;;;;;;;;;;5029597;28;20296;-62
2022/11/11 15:32:39;;;;;;;7.72;2.88;;;;;;;;;;5012300;28;20722;-62
2022/11/11 15:35:13;;;;;;;5.50;2.53;;;;;;;;;;5010978;28;20208;-62
2022/11/11 15:37:38;;;;;;;5.03;2.38;;;;;;;;;;5029343;28;20247;-61
2022/11/11 15:40:04;;;;;;;7.28;2.95;;;;;;;;;;5010425;28;20711;-62
2022/11/11 15:42:31;;;;;;;9.45;3.33;;;;;;;;;;5010363;28;20212;-61